Aviation Digital Data Service (ADDS)

Output produced by METARs form (1704 UTC 24 April 2017)
found at http://www.aviationweather.gov/adds/metars/
 
LPAZ 241630Z 12006KT 1800 RA SCT005 SCT012 16/15 Q1012
TAF LPAZ 241100Z 2412/2518 12012KT 9999 SCT010 SCT018 
     TEMPO 2412/2518 3000 RADZ BR SCT004 BKN008 
     PROB30 
     TEMPO 2412/2506 1500 DZRA BR SCT002 BKN004 
     BECMG 2503/2506 08007KT
       
LPBJ 241600Z 17009KT 140V200 CAVOK 23/13 Q1013
TAF LPBJ 241101Z 2412/2512 17010KT CAVOK 
     BECMG 2416/2418 30008KT 
     BECMG 2422/2424 VRB02KT 
     PROB40 2503/2506 0500 FG BKN003 
     BECMG 2510/2512 31010KT
       
LPCS 241630Z 33008KT 9999 FEW020 22/11 Q1013
LPFL 241630Z VRB02KT 9999 -DZ SCT006 BKN010 17/16 Q1011
LPFR 241630Z 14006KT 9999 FEW018 SCT025 20/16 Q1013
TAF LPFR 241100Z 2412/2512 10010KT 9999 SCT025 
     BECMG 2420/2422 VRB03KT BKN012 
     PROB40 
     TEMPO 2422/2508 3000 BR BKN003 
     BECMG 2509/2512 24010KT FEW025
       
LPHR 241630Z 09010KT 9999 SCT012 BKN028 19/17 Q1010
TAF LPHR 241400Z 2415/2424 12012KT 9999 SCT012 BKN025 
     TEMPO 2415/2424 5000 -RADZ BR SCT004 BKN008 
     PROB30 
     TEMPO 2415/2424 2000 DZRA BR SCT002 BKN004 
     BECMG 2420/2423 VRB05KT
       
LPLA 241600Z 12011KT 9999 1000SW -RA SCT002 BKN004 17/17 Q1012
TAF LPLA 241102Z 2412/2512 12012KT 9999 SCT009 BKN018 
     TEMPO 2412/2512 5000 -RA SCT005 BKN008 
     PROB40 
     TEMPO 2412/2424 2000 RADZ BR SCT003 BKN005 
     BECMG 2501/2503 09010KT FEW012 SCT030
       
LPMA 241630Z VRB06KT 5000 2000NE RA BR SCT005 BKN014 FEW016TCU 18/17 Q1016
TAF AMD LPMA 241538Z 2415/2512 VRB05KT 9999 SCT015 
     TEMPO 2415/2512 3000 RADZ BR SCT006 BKN013 
     BECMG 2500/2503 16010KT
       
LPPD 241630Z 07005KT 9999 FEW012 SCT025CB 17/16 Q1011
TAF LPPD 241100Z 2412/2512 12010KT 9999 SCT008 SCT015 
     TEMPO 2412/2512 3000 RADZ BR SCT004 BKN008 
     PROB30 
     TEMPO 2412/2512 1500 DZRA BR SCT002 BKN004 
     BECMG 2500/2503 05007KT
       
LPPR 241630Z 31008KT 270V340 9999 BKN011 16/13 Q1013
TAF LPPR 241100Z 2412/2512 VRB03KT 9999 SCT015 
     BECMG 2412/2415 32008KT FEW030 
     BECMG 2420/2422 VRB03KT 5000 BR SCT005 
     PROB40 
     TEMPO 2422/2509 2000 BR BKN002 
     BECMG 2510/2512 31008KT 9999 NSW SCT012
       
LPPS 241630Z 17005KT 120V210 9999 FEW015 20/15 Q1017
TAF LPPS 241100Z 2412/2518 VRB05KT 9999 SCT015 
     BECMG 2503/2506 16012KT SCT015 BKN030 
     PROB40 
     TEMPO 2506/2518 5000 RADZ BR SCT006 BKN012
       
LPPT 241630Z 32011KT 9999 FEW036 22/13 Q1013
TAF LPPT 241100Z 2412/2518 VRB03KT CAVOK 
     BECMG 2415/2418 32012KT 
     BECMG 2422/2424 35005KT 9999 FEW012 
     BECMG 2510/2512 32012KT CAVOK
       
LPBJ 241600Z 17009KT 140V200 CAVOK 23/13 Q1013
TAF LPBJ 241101Z 2412/2512 17010KT CAVOK 
     BECMG 2416/2418 30008KT 
     BECMG 2422/2424 VRB02KT 
     PROB40 2503/2506 0500 FG BKN003 
     BECMG 2510/2512 31010KT
       
LPCS 241630Z 33008KT 9999 FEW020 22/11 Q1013
LPFR 241630Z 14006KT 9999 FEW018 SCT025 20/16 Q1013
TAF LPFR 241100Z 2412/2512 10010KT 9999 SCT025 
     BECMG 2420/2422 VRB03KT BKN012 
     PROB40 
     TEMPO 2422/2508 3000 BR BKN003 
     BECMG 2509/2512 24010KT FEW025
       
LPFL 241630Z VRB02KT 9999 -DZ SCT006 BKN010 17/16 Q1011
LPHR 241630Z 09010KT 9999 SCT012 BKN028 19/17 Q1010
TAF LPHR 241400Z 2415/2424 12012KT 9999 SCT012 BKN025 
     TEMPO 2415/2424 5000 -RADZ BR SCT004 BKN008 
     PROB30 
     TEMPO 2415/2424 2000 DZRA BR SCT002 BKN004 
     BECMG 2420/2423 VRB05KT
       
LPLA 241600Z 12011KT 9999 1000SW -RA SCT002 BKN004 17/17 Q1012
TAF LPLA 241102Z 2412/2512 12012KT 9999 SCT009 BKN018 
     TEMPO 2412/2512 5000 -RA SCT005 BKN008 
     PROB40 
     TEMPO 2412/2424 2000 RADZ BR SCT003 BKN005 
     BECMG 2501/2503 09010KT FEW012 SCT030
       
LPPT 241630Z 32011KT 9999 FEW036 22/13 Q1013
TAF LPPT 241100Z 2412/2518 VRB03KT CAVOK 
     BECMG 2415/2418 32012KT 
     BECMG 2422/2424 35005KT 9999 FEW012 
     BECMG 2510/2512 32012KT CAVOK
       
LPMA 241630Z VRB06KT 5000 2000NE RA BR SCT005 BKN014 FEW016TCU 18/17 Q1016
TAF AMD LPMA 241538Z 2415/2512 VRB05KT 9999 SCT015 
     TEMPO 2415/2512 3000 RADZ BR SCT006 BKN013 
     BECMG 2500/2503 16010KT
       
LPPD 241630Z 07005KT 9999 FEW012 SCT025CB 17/16 Q1011
TAF LPPD 241100Z 2412/2512 12010KT 9999 SCT008 SCT015 
     TEMPO 2412/2512 3000 RADZ BR SCT004 BKN008 
     PROB30 
     TEMPO 2412/2512 1500 DZRA BR SCT002 BKN004 
     BECMG 2500/2503 05007KT
       
LPPR 241630Z 31008KT 270V340 9999 BKN011 16/13 Q1013
TAF LPPR 241100Z 2412/2512 VRB03KT 9999 SCT015 
     BECMG 2412/2415 32008KT FEW030 
     BECMG 2420/2422 VRB03KT 5000 BR SCT005 
     PROB40 
     TEMPO 2422/2509 2000 BR BKN002 
     BECMG 2510/2512 31008KT 9999 NSW SCT012
       
LPPS 241630Z 17005KT 120V210 9999 FEW015 20/15 Q1017
TAF LPPS 241100Z 2412/2518 VRB05KT 9999 SCT015 
     BECMG 2503/2506 16012KT SCT015 BKN030 
     PROB40 
     TEMPO 2506/2518 5000 RADZ BR SCT006 BKN012
       
LPAZ 241630Z 12006KT 1800 RA SCT005 SCT012 16/15 Q1012
TAF LPAZ 241100Z 2412/2518 12012KT 9999 SCT010 SCT018 
     TEMPO 2412/2518 3000 RADZ BR SCT004 BKN008 
     PROB30 
     TEMPO 2412/2506 1500 DZRA BR SCT002 BKN004 
     BECMG 2503/2506 08007KT